createdAt,value
2017-10-18T00:00:31.281Z,19.60
2017-10-18T00:01:38.054Z,17.50
2017-10-18T00:02:44.810Z,16.60
2017-10-18T00:03:51.593Z,17.50
2017-10-18T00:04:58.534Z,15.50
2017-10-18T00:06:05.547Z,16.10
2017-10-18T00:07:12.306Z,14.90
2017-10-18T00:08:19.034Z,14.60
2017-10-18T00:09:25.794Z,17.70
2017-10-18T00:10:32.578Z,19.40
2017-10-18T00:11:39.346Z,15.60
2017-10-18T00:12:46.105Z,17.30
2017-10-18T00:13:52.892Z,18.10
2017-10-18T00:14:59.638Z,14.70
2017-10-18T00:16:06.466Z,15.00
2017-10-18T00:17:13.254Z,15.50
2017-10-18T00:18:20.008Z,17.90
2017-10-18T00:19:26.852Z,17.40
2017-10-18T00:20:33.624Z,16.50
2017-10-18T00:21:40.390Z,15.30
2017-10-18T00:22:47.149Z,14.40
2017-10-18T00:23:53.915Z,13.90
2017-10-18T00:25:00.722Z,14.80
2017-10-18T00:26:07.497Z,13.10
2017-10-18T00:27:14.218Z,17.40
2017-10-18T00:28:20.978Z,14.30
2017-10-18T00:29:27.730Z,13.20
2017-10-18T00:30:34.585Z,13.10
2017-10-18T00:31:41.328Z,13.20
2017-10-18T00:32:48.094Z,12.50
2017-10-18T00:33:54.894Z,13.50
2017-10-18T00:35:01.694Z,13.10
2017-10-18T00:36:08.474Z,12.90
2017-10-18T00:37:15.238Z,14.00
2017-10-18T00:38:22.005Z,12.90
2017-10-18T00:39:28.784Z,14.10
2017-10-18T00:40:35.602Z,13.40
2017-10-18T00:41:42.385Z,13.70
2017-10-18T00:42:49.138Z,12.20
2017-10-18T00:43:55.999Z,13.40
2017-10-18T00:45:02.804Z,15.70
2017-10-18T00:46:09.634Z,15.70
2017-10-18T00:47:16.402Z,13.70
2017-10-18T00:48:23.228Z,13.30
2017-10-18T00:49:30.142Z,13.30
2017-10-18T00:50:36.933Z,14.80
2017-10-18T00:51:43.761Z,12.30
2017-10-18T00:52:50.521Z,15.40
2017-10-18T00:53:57.434Z,14.40
2017-10-18T00:55:04.599Z,13.50
2017-10-18T00:56:11.379Z,15.30
2017-10-18T00:57:18.150Z,12.40
2017-10-18T00:58:24.945Z,15.30
2017-10-18T00:59:31.698Z,12.90
2017-10-18T01:00:38.554Z,11.90
2017-10-18T01:01:45.326Z,13.40
2017-10-18T01:02:52.349Z,12.90
2017-10-18T01:03:59.084Z,13.60
2017-10-18T01:05:05.830Z,14.60
2017-10-18T01:06:12.610Z,18.20
2017-10-18T01:07:19.426Z,13.80
2017-10-18T01:08:26.173Z,17.30
2017-10-18T01:09:33.046Z,13.30
2017-10-18T01:10:39.922Z,16.50
2017-10-18T01:11:46.686Z,13.30
2017-10-18T01:12:53.427Z,14.60
2017-10-18T01:14:00.186Z,13.40
2017-10-18T01:15:06.949Z,12.90
2017-10-18T01:16:13.817Z,13.30
2017-10-18T01:17:20.546Z,14.30
2017-10-18T01:18:27.305Z,13.80
2017-10-18T01:19:34.046Z,13.70
2017-10-18T01:20:40.865Z,13.20
2017-10-18T01:21:47.635Z,13.60
2017-10-18T01:22:54.611Z,17.50
2017-10-18T01:24:01.358Z,12.70
2017-10-18T01:25:08.093Z,13.50
2017-10-18T01:26:14.854Z,14.00
2017-10-18T01:27:21.614Z,14.00
2017-10-18T01:28:28.385Z,14.20
2017-10-18T01:29:35.143Z,12.80
2017-10-18T01:30:42.086Z,12.80
2017-10-18T01:31:48.833Z,13.20
2017-10-18T01:32:55.571Z,12.90
2017-10-18T01:34:02.358Z,13.60
2017-10-18T01:35:09.126Z,12.60
2017-10-18T01:36:15.881Z,14.40
2017-10-18T01:37:22.621Z,13.00
2017-10-18T01:38:29.353Z,15.50
2017-10-18T01:39:36.093Z,13.20
2017-10-18T01:40:42.824Z,15.20
2017-10-18T01:41:49.578Z,15.50
2017-10-18T01:42:56.376Z,13.70
2017-10-18T01:44:03.110Z,14.50
2017-10-18T01:45:09.847Z,13.90
2017-10-18T01:46:16.598Z,13.50
2017-10-18T01:47:23.413Z,12.70
2017-10-18T01:48:30.245Z,14.40
2017-10-18T01:49:36.973Z,14.60
2017-10-18T01:50:43.849Z,13.70
2017-10-18T01:51:50.639Z,13.30
2017-10-18T01:52:57.372Z,12.50
2017-10-18T01:54:04.109Z,14.10
2017-10-18T01:55:10.846Z,14.60
2017-10-18T01:56:17.587Z,13.20
2017-10-18T01:57:24.370Z,12.70
2017-10-18T01:58:31.132Z,13.50
2017-10-18T01:59:37.881Z,13.90
2017-10-18T02:00:44.688Z,14.00
2017-10-18T02:01:51.585Z,12.60
2017-10-18T02:02:58.342Z,12.30
2017-10-18T02:04:05.110Z,12.80
2017-10-18T02:05:11.860Z,13.40
2017-10-18T02:06:18.607Z,14.00
2017-10-18T02:07:25.405Z,14.60
2017-10-18T02:08:32.202Z,14.90
2017-10-18T02:09:39.282Z,14.40
2017-10-18T02:10:46.067Z,12.60
2017-10-18T02:11:52.851Z,13.80
2017-10-18T02:12:59.729Z,15.80
2017-10-18T02:14:06.495Z,12.60
2017-10-18T02:15:13.272Z,14.40
2017-10-18T02:16:20.082Z,13.20
2017-10-18T02:17:26.850Z,13.90
2017-10-18T02:18:33.645Z,16.70
2017-10-18T02:19:40.550Z,13.40
2017-10-18T02:20:47.297Z,18.00
2017-10-18T02:21:54.045Z,12.10
2017-10-18T02:23:00.818Z,13.40
2017-10-18T02:24:07.578Z,13.10
2017-10-18T02:25:14.367Z,13.00
2017-10-18T02:26:21.159Z,12.60
2017-10-18T02:27:27.914Z,12.40
2017-10-18T02:28:34.697Z,12.50
2017-10-18T02:29:41.526Z,15.80
2017-10-18T02:30:48.269Z,12.30
2017-10-18T02:31:55.041Z,11.60
2017-10-18T02:33:01.788Z,13.20
2017-10-18T02:34:08.561Z,12.60
2017-10-18T02:35:15.443Z,14.90
2017-10-18T02:36:22.310Z,12.50
2017-10-18T02:37:29.114Z,12.70
2017-10-18T02:38:35.895Z,12.50
2017-10-18T02:39:42.794Z,12.00
2017-10-18T02:40:49.525Z,13.40
2017-10-18T02:41:56.295Z,13.00
2017-10-18T02:43:03.145Z,12.90
2017-10-18T02:44:09.910Z,13.60
2017-10-18T02:45:16.672Z,12.50
2017-10-18T02:46:23.430Z,12.30
2017-10-18T02:47:30.162Z,12.80
2017-10-18T02:48:36.969Z,12.40
2017-10-18T02:49:43.792Z,12.60
2017-10-18T02:50:50.549Z,12.20
2017-10-18T02:51:57.313Z,13.20
2017-10-18T02:53:04.141Z,12.80
2017-10-18T02:54:10.929Z,14.30
2017-10-18T02:55:17.736Z,13.20
2017-10-18T02:56:24.518Z,12.40
2017-10-18T02:57:31.270Z,12.40
2017-10-18T02:58:38.083Z,12.10
2017-10-18T02:59:44.926Z,13.20
2017-10-18T03:00:51.742Z,12.40
2017-10-18T03:01:58.490Z,12.90
2017-10-18T03:03:05.282Z,13.60
2017-10-18T03:04:12.066Z,12.40
2017-10-18T03:05:18.833Z,12.90
2017-10-18T03:06:25.997Z,12.70
2017-10-18T03:07:32.779Z,12.70
2017-10-18T03:08:39.530Z,12.40
2017-10-18T03:09:46.326Z,13.00
2017-10-18T03:10:53.113Z,13.80
2017-10-18T03:11:59.868Z,13.20
2017-10-18T03:13:06.634Z,13.50
2017-10-18T03:14:13.461Z,11.90
2017-10-18T03:15:20.237Z,12.50
2017-10-18T03:16:27.010Z,12.80
2017-10-18T03:17:33.867Z,13.40
2017-10-18T03:18:40.670Z,12.60
2017-10-18T03:19:47.454Z,12.80
2017-10-18T03:20:54.201Z,12.80
2017-10-18T03:22:00.937Z,13.00
2017-10-18T03:23:07.725Z,13.00
2017-10-18T03:24:14.574Z,12.90
2017-10-18T03:25:21.337Z,13.50
2017-10-18T03:26:28.117Z,14.10
2017-10-18T03:27:34.914Z,12.40
2017-10-18T03:28:41.814Z,12.80
2017-10-18T03:29:48.730Z,12.70
2017-10-18T03:30:55.491Z,12.50
2017-10-18T03:32:02.258Z,11.90
2017-10-18T03:33:09.025Z,12.00
2017-10-18T03:34:15.773Z,12.40
2017-10-18T03:35:22.574Z,12.90
2017-10-18T03:36:29.394Z,12.70
2017-10-18T03:37:36.210Z,12.50
2017-10-18T03:38:42.968Z,12.70
2017-10-18T03:39:49.755Z,12.40
2017-10-18T03:40:56.626Z,12.80
2017-10-18T03:42:03.484Z,12.80
2017-10-18T03:43:10.230Z,12.70
2017-10-18T03:44:17.001Z,12.80
2017-10-18T03:45:23.889Z,12.90
2017-10-18T03:46:30.659Z,13.00
2017-10-18T03:47:37.417Z,12.20
2017-10-18T03:48:44.215Z,13.40
2017-10-18T03:49:51.001Z,12.60
2017-10-18T03:50:57.799Z,13.30
2017-10-18T03:52:04.569Z,12.10
2017-10-18T03:53:11.325Z,12.50
2017-10-18T03:54:18.105Z,12.40
2017-10-18T03:55:25.035Z,12.90
2017-10-18T03:56:32.002Z,13.10
2017-10-18T03:57:38.767Z,12.20
2017-10-18T03:58:45.546Z,12.00
2017-10-18T03:59:52.294Z,12.40
2017-10-18T04:00:59.108Z,12.30
2017-10-18T04:02:05.922Z,12.60
2017-10-18T04:03:12.740Z,12.30
2017-10-18T04:04:19.537Z,13.50
2017-10-18T04:05:26.311Z,12.70
2017-10-18T04:06:33.507Z,13.00
2017-10-18T04:07:40.293Z,13.50
2017-10-18T04:08:47.046Z,12.60
2017-10-18T04:09:53.818Z,12.60
2017-10-18T04:11:00.586Z,13.20
2017-10-18T04:12:07.363Z,12.50
2017-10-18T04:13:14.125Z,12.00
2017-10-18T04:14:20.886Z,14.20
2017-10-18T04:15:27.662Z,12.50
2017-10-18T04:16:34.467Z,12.70
2017-10-18T04:17:41.227Z,12.20
2017-10-18T04:18:48.017Z,12.20
2017-10-18T04:19:54.767Z,12.00
2017-10-18T04:21:01.541Z,13.90
2017-10-18T04:22:08.395Z,12.60
2017-10-18T04:23:15.189Z,12.50
2017-10-18T04:24:21.949Z,12.10
2017-10-18T04:25:29.165Z,12.60
2017-10-18T04:26:35.528Z,11.80
2017-10-18T04:27:42.314Z,12.50
2017-10-18T04:28:49.127Z,12.60
2017-10-18T04:29:55.989Z,12.60
2017-10-18T04:31:02.729Z,11.80
2017-10-18T04:32:09.510Z,11.40
2017-10-18T04:33:16.300Z,10.80
2017-10-18T04:34:23.070Z,10.80
2017-10-18T04:35:29.838Z,11.00
2017-10-18T04:36:36.633Z,11.70
2017-10-18T04:37:43.479Z,11.00
2017-10-18T04:38:50.218Z,11.20
2017-10-18T04:39:57.049Z,11.00
2017-10-18T04:41:03.875Z,11.00
2017-10-18T04:42:10.638Z,10.40
2017-10-18T04:43:17.468Z,10.60
2017-10-18T04:44:24.237Z,11.00
2017-10-18T04:45:31.039Z,11.90
2017-10-18T04:46:37.845Z,10.40
2017-10-18T04:47:45.249Z,10.70
2017-10-18T04:48:51.574Z,10.80
2017-10-18T04:49:58.333Z,10.50
2017-10-18T04:51:05.097Z,10.60
2017-10-18T04:52:11.881Z,10.10
2017-10-18T04:53:18.689Z,9.90
2017-10-18T04:54:25.673Z,10.50
2017-10-18T04:55:32.450Z,11.00
2017-10-18T04:56:39.585Z,10.60
2017-10-18T04:57:46.328Z,11.00
2017-10-18T04:58:53.101Z,10.00
2017-10-18T04:59:59.833Z,9.80
2017-10-18T05:01:06.726Z,9.50
2017-10-18T05:02:13.508Z,8.90
2017-10-18T05:03:20.361Z,9.30
2017-10-18T05:04:27.119Z,10.10
2017-10-18T05:05:33.919Z,10.20
2017-10-18T05:06:40.745Z,10.50
2017-10-18T05:07:47.507Z,10.30
2017-10-18T05:08:54.266Z,10.90
2017-10-18T05:10:01.085Z,10.50
2017-10-18T05:11:07.867Z,9.80
2017-10-18T05:12:14.675Z,10.20
2017-10-18T05:13:21.453Z,9.40
2017-10-18T05:14:28.201Z,9.70
2017-10-18T05:15:35.040Z,11.00
2017-10-18T05:16:41.843Z,9.90
2017-10-18T05:17:48.930Z,9.90
2017-10-18T05:18:55.689Z,11.50
2017-10-18T05:20:02.451Z,9.30
2017-10-18T05:21:09.268Z,9.30
2017-10-18T05:22:16.114Z,9.80
2017-10-18T05:23:23.042Z,9.90
2017-10-18T05:24:29.793Z,9.50
2017-10-18T05:25:36.545Z,9.00
2017-10-18T05:26:43.298Z,9.50
2017-10-18T05:27:50.041Z,9.30
2017-10-18T05:28:56.782Z,10.20
2017-10-18T05:30:03.557Z,9.50
2017-10-18T05:31:10.350Z,9.60
2017-10-18T05:32:17.190Z,9.20
2017-10-18T05:33:23.938Z,8.90
2017-10-18T05:34:30.727Z,9.20
2017-10-18T05:35:37.477Z,9.40
2017-10-18T05:36:44.234Z,9.20
2017-10-18T05:37:51.015Z,9.50
2017-10-18T05:38:57.747Z,9.60
2017-10-18T05:40:04.526Z,8.90
2017-10-18T05:41:11.335Z,9.50
2017-10-18T05:42:18.121Z,9.00
2017-10-18T05:43:24.874Z,9.70
2017-10-18T05:44:31.601Z,9.20
2017-10-18T05:45:38.341Z,9.30
2017-10-18T05:46:45.105Z,9.10
2017-10-18T05:47:51.849Z,9.20
2017-10-18T05:48:58.609Z,9.30
2017-10-18T05:50:05.352Z,9.70
2017-10-18T05:51:12.085Z,9.10
2017-10-18T05:52:18.922Z,9.20
2017-10-18T05:53:25.649Z,9.60
2017-10-18T05:54:32.457Z,9.90
2017-10-18T05:55:39.222Z,9.90
2017-10-18T05:56:45.977Z,9.60
2017-10-18T05:57:52.953Z,9.60
2017-10-18T05:58:59.965Z,9.00
2017-10-18T06:00:06.726Z,9.30
2017-10-18T06:01:13.489Z,9.70
2017-10-18T06:02:20.319Z,8.90
2017-10-18T06:03:27.077Z,9.30
2017-10-18T06:04:33.849Z,9.10
2017-10-18T06:05:40.818Z,9.80
2017-10-18T06:06:47.456Z,9.10
2017-10-18T06:07:54.310Z,8.90
2017-10-18T06:09:01.034Z,9.40
2017-10-18T06:10:07.841Z,9.10
2017-10-18T06:11:14.569Z,9.50
2017-10-18T06:12:21.333Z,9.00
2017-10-18T06:13:28.053Z,8.70
2017-10-18T06:14:34.820Z,9.40
2017-10-18T06:15:41.560Z,8.60
2017-10-18T06:16:48.497Z,8.60
2017-10-18T06:17:55.269Z,8.80
2017-10-18T06:19:02.026Z,9.00
2017-10-18T06:20:08.854Z,8.80
2017-10-18T06:21:15.605Z,8.80
2017-10-18T06:22:22.417Z,7.70
2017-10-18T06:23:29.174Z,9.00
2017-10-18T06:24:35.973Z,8.40
2017-10-18T06:25:42.896Z,8.40
2017-10-18T06:26:49.665Z,8.50
2017-10-18T06:27:56.439Z,8.70
2017-10-18T06:29:03.256Z,8.80
2017-10-18T06:30:10.085Z,8.70
2017-10-18T06:31:16.841Z,9.30
2017-10-18T06:32:23.660Z,8.60
2017-10-18T06:33:30.469Z,9.00
2017-10-18T06:34:37.202Z,9.60
2017-10-18T06:35:44.265Z,9.10
2017-10-18T06:36:51.012Z,9.30
2017-10-18T06:37:57.833Z,8.90
2017-10-18T06:39:04.670Z,9.10
2017-10-18T06:40:11.487Z,9.60
2017-10-18T06:41:18.245Z,9.90
2017-10-18T06:42:25.021Z,10.20
2017-10-18T06:43:31.845Z,9.30
2017-10-18T06:44:38.605Z,10.70
2017-10-18T06:45:45.366Z,9.40
2017-10-18T06:46:52.221Z,8.60
2017-10-18T06:47:59.000Z,9.60
2017-10-18T06:49:05.751Z,9.50
2017-10-18T06:50:12.576Z,8.80
2017-10-18T06:51:19.357Z,9.70
2017-10-18T06:52:26.105Z,9.80
2017-10-18T06:53:32.953Z,9.90
2017-10-18T06:54:39.697Z,9.10
2017-10-18T06:55:46.420Z,9.70
2017-10-18T06:56:53.521Z,8.40
2017-10-18T06:58:00.290Z,9.10
2017-10-18T06:59:07.094Z,9.50
2017-10-18T07:00:15.225Z,9.20
2017-10-18T07:01:20.813Z,8.90
2017-10-18T07:02:27.598Z,8.90
2017-10-18T07:03:34.352Z,7.60
2017-10-18T07:04:41.106Z,9.00
2017-10-18T07:05:47.865Z,9.00
2017-10-18T07:06:54.646Z,9.10
2017-10-18T07:08:01.415Z,9.10
2017-10-18T07:09:08.173Z,8.60
2017-10-18T07:10:15.078Z,8.70
2017-10-18T07:11:21.869Z,8.50
2017-10-18T07:12:28.733Z,10.50
2017-10-18T07:13:35.510Z,10.30
2017-10-18T07:14:42.269Z,9.00
2017-10-18T07:15:49.042Z,11.10
2017-10-18T07:16:55.793Z,25.60
2017-10-18T07:18:02.556Z,21.50
2017-10-18T07:19:09.337Z,19.20
2017-10-18T07:20:16.130Z,20.30
2017-10-18T07:21:22.877Z,19.30
2017-10-18T07:22:29.687Z,18.20
2017-10-18T07:23:36.437Z,23.80
2017-10-18T07:24:43.513Z,31.00
2017-10-18T07:25:50.288Z,24.40
2017-10-18T07:26:57.066Z,26.40
2017-10-18T07:28:03.886Z,22.70
2017-10-18T07:29:10.743Z,18.30
2017-10-18T07:30:17.586Z,17.20
2017-10-18T07:31:24.336Z,15.50
2017-10-18T07:32:31.122Z,14.80
2017-10-18T07:33:37.905Z,12.60
2017-10-18T07:34:44.660Z,12.80
2017-10-18T07:35:51.445Z,13.10
2017-10-18T07:36:58.254Z,12.20
2017-10-18T07:38:05.049Z,11.90
2017-10-18T07:39:11.797Z,12.50
2017-10-18T07:40:18.613Z,11.50
2017-10-18T07:41:25.393Z,12.50
2017-10-18T07:42:32.326Z,11.90
2017-10-18T07:43:39.213Z,12.40
2017-10-18T07:44:45.998Z,13.60
2017-10-18T07:45:52.745Z,13.20
2017-10-18T07:46:59.494Z,12.40
2017-10-18T07:48:06.337Z,12.30
2017-10-18T07:49:13.127Z,11.30
2017-10-18T07:50:19.898Z,12.00
2017-10-18T07:51:26.645Z,13.10
2017-10-18T07:52:33.464Z,12.70
2017-10-18T07:53:40.341Z,12.60
2017-10-18T07:54:47.518Z,12.40
2017-10-18T07:55:53.918Z,11.60
2017-10-18T07:57:00.721Z,11.00
2017-10-18T07:58:07.576Z,10.60
2017-10-18T07:59:14.474Z,10.40
2017-10-18T08:00:21.334Z,10.20
2017-10-18T08:01:28.202Z,9.50
2017-10-18T08:02:35.030Z,10.60
2017-10-18T08:03:41.857Z,10.50
2017-10-18T08:04:48.694Z,10.70
2017-10-18T08:05:55.534Z,10.80
2017-10-18T08:07:02.504Z,9.80
2017-10-18T08:08:09.134Z,9.70
2017-10-18T08:09:15.970Z,10.10
2017-10-18T08:10:22.813Z,9.60
2017-10-18T08:11:29.714Z,10.00
2017-10-18T08:12:36.576Z,10.90
2017-10-18T08:13:43.432Z,11.90
2017-10-18T08:14:50.397Z,12.60
2017-10-18T08:15:57.173Z,14.40
2017-10-18T08:17:03.955Z,13.30
2017-10-18T08:18:10.749Z,11.30
2017-10-18T08:19:17.509Z,12.10
2017-10-18T08:20:24.406Z,13.10
2017-10-18T08:21:31.176Z,12.80
2017-10-18T08:22:37.949Z,11.20
2017-10-18T08:23:44.806Z,10.50
2017-10-18T08:24:51.590Z,12.60
2017-10-18T08:25:58.341Z,11.20
2017-10-18T08:27:05.095Z,11.80
2017-10-18T08:28:11.919Z,12.80
2017-10-18T08:29:18.685Z,12.60
2017-10-18T08:30:25.509Z,14.00
2017-10-18T08:31:32.374Z,12.60
2017-10-18T08:32:39.199Z,11.70
2017-10-18T08:33:45.985Z,11.60
2017-10-18T08:34:52.826Z,11.90
2017-10-18T08:35:59.613Z,11.30
2017-10-18T08:37:06.386Z,18.60
2017-10-18T08:38:13.177Z,44.70
2017-10-18T08:39:19.998Z,30.50
2017-10-18T08:40:27.366Z,18.10
2017-10-18T08:41:33.670Z,14.30
2017-10-18T08:42:40.601Z,15.80
2017-10-18T08:43:47.378Z,14.10
2017-10-18T08:44:54.133Z,14.10
2017-10-18T08:46:00.922Z,15.00
2017-10-18T08:47:07.741Z,16.10
2017-10-18T08:48:14.608Z,15.60
2017-10-18T08:49:26.561Z,15.30
2017-10-18T08:50:28.330Z,16.60
2017-10-18T08:51:35.141Z,16.50
2017-10-18T08:52:41.922Z,14.30
2017-10-18T08:53:48.682Z,16.70
2017-10-18T08:54:55.458Z,16.60
2017-10-18T08:56:02.222Z,17.10
2017-10-18T08:57:09.084Z,18.90
2017-10-18T08:58:15.875Z,18.70
2017-10-18T08:59:22.642Z,18.40
2017-10-18T09:00:29.485Z,18.00
2017-10-18T09:01:36.408Z,20.90
2017-10-18T09:02:43.233Z,15.40
2017-10-18T09:03:50.097Z,17.30
2017-10-18T09:04:56.969Z,15.50
2017-10-18T09:06:03.786Z,17.00
2017-10-18T09:07:10.590Z,14.90
2017-10-18T09:08:17.379Z,17.80
2017-10-18T09:09:24.205Z,16.30
2017-10-18T09:10:31.114Z,16.10
2017-10-18T09:11:37.921Z,17.70
2017-10-18T09:12:44.712Z,21.20
2017-10-18T09:13:51.497Z,20.90
2017-10-18T09:14:58.326Z,19.50
2017-10-18T09:16:05.129Z,16.50
2017-10-18T09:17:11.901Z,23.50
2017-10-18T09:18:18.683Z,21.60
2017-10-18T09:19:25.441Z,19.60
2017-10-18T09:20:32.222Z,21.40
2017-10-18T09:21:38.929Z,21.10
2017-10-18T09:22:45.707Z,25.20
2017-10-18T09:23:52.514Z,20.20
2017-10-18T09:24:59.275Z,19.80
2017-10-18T09:26:06.047Z,23.90
2017-10-18T09:27:12.753Z,24.50
2017-10-18T09:28:19.605Z,21.60
2017-10-18T09:29:26.370Z,26.30
2017-10-18T09:30:33.130Z,26.40
2017-10-18T09:31:39.973Z,24.20
2017-10-18T09:32:46.741Z,24.60
2017-10-18T09:33:54.026Z,24.70
2017-10-18T09:35:00.319Z,22.20
2017-10-18T09:36:07.102Z,26.90
2017-10-18T09:37:13.850Z,28.10
2017-10-18T09:38:20.711Z,28.50
2017-10-18T09:39:27.461Z,29.90
2017-10-18T09:40:34.401Z,20.70
2017-10-18T09:41:41.127Z,24.80
2017-10-18T09:42:48.005Z,22.50
2017-10-18T09:43:54.814Z,25.70
2017-10-18T09:45:01.569Z,23.40
2017-10-18T09:46:08.366Z,22.00
2017-10-18T09:47:15.195Z,25.20
2017-10-18T09:48:22.009Z,22.70
2017-10-18T09:49:28.765Z,21.90
2017-10-18T09:50:35.561Z,23.40
2017-10-18T09:51:42.321Z,23.20
2017-10-18T09:52:49.114Z,23.70
2017-10-18T09:53:55.933Z,24.50
2017-10-18T09:55:02.753Z,21.80
2017-10-18T09:56:09.526Z,19.70
2017-10-18T09:57:16.313Z,19.60
2017-10-18T09:58:23.125Z,19.20
2017-10-18T09:59:29.874Z,18.80
2017-10-18T10:00:36.662Z,19.50
2017-10-18T10:01:43.401Z,21.30
2017-10-18T10:02:50.181Z,21.90
2017-10-18T10:03:57.045Z,22.20
2017-10-18T10:05:03.794Z,23.50
2017-10-18T10:06:10.618Z,19.70
2017-10-18T10:07:17.517Z,21.10
2017-10-18T10:08:24.289Z,22.40
2017-10-18T10:09:31.026Z,22.90
2017-10-18T10:10:37.801Z,20.30
2017-10-18T10:11:44.558Z,20.10
2017-10-18T10:12:51.342Z,19.90
2017-10-18T10:13:58.192Z,21.90
2017-10-18T10:15:04.982Z,25.90
2017-10-18T10:16:11.739Z,23.00
2017-10-18T10:17:18.567Z,19.60
2017-10-18T10:18:25.341Z,22.50
2017-10-18T10:19:32.265Z,19.70
2017-10-18T10:20:39.013Z,21.50
2017-10-18T10:21:45.828Z,19.20
2017-10-18T10:22:52.621Z,17.40
2017-10-18T10:23:59.373Z,16.50
2017-10-18T10:25:06.143Z,18.30
2017-10-18T10:26:12.914Z,19.90
2017-10-18T10:27:19.664Z,20.60
2017-10-18T10:28:26.522Z,18.10
2017-10-18T10:29:33.403Z,19.20
2017-10-18T10:30:40.175Z,16.00
2017-10-18T10:31:47.006Z,17.60
2017-10-18T10:32:54.018Z,20.00
2017-10-18T10:34:00.777Z,18.00
2017-10-18T10:35:07.634Z,25.50
2017-10-18T10:36:14.443Z,20.10
2017-10-18T10:37:21.206Z,17.20
2017-10-18T10:38:28.053Z,18.70
2017-10-18T10:39:34.805Z,22.40
2017-10-18T10:40:41.614Z,16.70
2017-10-18T10:41:48.448Z,18.10
2017-10-18T10:42:55.239Z,19.50
2017-10-18T10:44:01.989Z,17.30
2017-10-18T10:45:08.801Z,20.10
2017-10-18T10:46:15.562Z,13.80
2017-10-18T10:47:22.418Z,13.40
2017-10-18T10:48:29.238Z,14.00
2017-10-18T10:49:36.077Z,17.30
2017-10-18T10:50:42.909Z,20.90
2017-10-18T10:51:49.658Z,16.00
2017-10-18T10:52:56.423Z,13.50
2017-10-18T10:54:03.253Z,14.00
2017-10-18T10:55:10.022Z,20.80
2017-10-18T10:56:16.793Z,15.00
2017-10-18T10:57:23.626Z,15.70
2017-10-18T10:58:30.437Z,16.10
2017-10-18T10:59:37.190Z,12.90
2017-10-18T11:00:43.981Z,13.70
2017-10-18T11:01:50.741Z,15.00
2017-10-18T11:02:57.521Z,11.90
2017-10-18T11:04:04.365Z,14.40
2017-10-18T11:05:11.125Z,11.30
2017-10-18T11:06:17.884Z,13.00
2017-10-18T11:07:24.745Z,13.40
2017-10-18T11:08:31.521Z,18.10
2017-10-18T11:09:38.280Z,12.60
2017-10-18T11:10:45.131Z,13.00
2017-10-18T11:11:51.910Z,15.50
2017-10-18T11:12:58.678Z,13.80
2017-10-18T11:14:05.519Z,11.90
2017-10-18T11:15:12.286Z,14.30
2017-10-18T11:16:19.099Z,13.80
2017-10-18T11:17:25.858Z,15.50
2017-10-18T11:18:32.773Z,14.00
2017-10-18T11:19:39.626Z,14.50
2017-10-18T11:20:46.371Z,13.30
2017-10-18T11:21:53.137Z,11.20
2017-10-18T11:23:00.004Z,12.30
2017-10-18T11:24:06.785Z,12.10
2017-10-18T11:25:13.540Z,14.20
2017-10-18T11:26:20.357Z,14.20
2017-10-18T11:27:27.118Z,13.70
2017-10-18T11:28:33.909Z,14.90
2017-10-18T11:29:40.729Z,13.20
2017-10-18T11:30:47.496Z,11.40
2017-10-18T11:31:54.260Z,12.20
2017-10-18T11:33:01.106Z,14.20
2017-10-18T11:34:07.881Z,12.30
2017-10-18T11:35:14.642Z,14.30
2017-10-18T11:36:21.465Z,13.30
2017-10-18T11:37:28.300Z,12.80
2017-10-18T11:38:35.102Z,16.80
2017-10-18T11:39:41.849Z,13.60
2017-10-18T11:40:48.621Z,13.70
2017-10-18T11:41:55.386Z,12.10
2017-10-18T11:43:02.208Z,13.60
2017-10-18T11:44:08.988Z,13.30
2017-10-18T11:45:15.770Z,15.30
2017-10-18T11:46:22.569Z,12.90
2017-10-18T11:47:29.331Z,14.70
2017-10-18T11:48:36.151Z,10.80
2017-10-18T11:49:42.949Z,12.50
2017-10-18T11:50:49.702Z,13.80
2017-10-18T11:51:56.471Z,14.60
2017-10-18T11:53:03.326Z,13.30
2017-10-18T11:54:10.102Z,14.40
2017-10-18T11:55:16.869Z,14.80
2017-10-18T11:56:23.738Z,12.90
2017-10-18T11:57:30.501Z,16.20
2017-10-18T11:58:37.458Z,16.00
2017-10-18T11:59:44.230Z,14.00
2017-10-18T12:00:50.981Z,14.00
2017-10-18T12:01:58.176Z,15.20
2017-10-18T12:03:04.929Z,14.30
2017-10-18T12:04:11.729Z,13.20
2017-10-18T12:05:18.482Z,12.40
2017-10-18T12:06:25.315Z,12.70
2017-10-18T12:07:32.066Z,11.40
2017-10-18T12:08:38.809Z,12.30
2017-10-18T12:09:45.550Z,14.60
2017-10-18T12:10:52.307Z,12.20
2017-10-18T12:11:59.059Z,11.60
2017-10-18T12:13:05.818Z,14.50
2017-10-18T12:14:12.574Z,12.50
2017-10-18T12:15:19.307Z,13.80
2017-10-18T12:16:26.031Z,14.10
2017-10-18T12:17:32.773Z,14.80
2017-10-18T12:18:39.524Z,15.10
2017-10-18T12:19:46.315Z,17.30
2017-10-18T12:20:53.102Z,14.70
2017-10-18T12:21:59.882Z,14.10
2017-10-18T12:23:06.681Z,13.10
2017-10-18T12:24:13.458Z,18.90
2017-10-18T12:25:20.202Z,13.00
2017-10-18T12:26:26.934Z,12.60
2017-10-18T12:27:33.687Z,14.80
2017-10-18T12:28:40.461Z,14.40
2017-10-18T12:29:47.198Z,13.00
2017-10-18T12:30:54.035Z,13.30
2017-10-18T12:32:00.799Z,14.60
2017-10-18T12:33:07.530Z,13.70
2017-10-18T12:34:14.298Z,13.30
2017-10-18T12:35:21.012Z,13.50
2017-10-18T12:36:27.732Z,15.30
2017-10-18T12:37:34.493Z,14.20
2017-10-18T12:38:41.229Z,13.30
2017-10-18T12:39:47.989Z,14.30
2017-10-18T12:40:54.722Z,13.50
2017-10-18T12:42:01.452Z,17.60
2017-10-18T12:43:08.210Z,14.80
2017-10-18T12:44:15.005Z,14.80
2017-10-18T12:45:21.731Z,14.80
2017-10-18T12:46:28.501Z,14.30
2017-10-18T12:47:35.325Z,11.80
2017-10-18T12:48:42.089Z,10.70
2017-10-18T12:49:48.848Z,13.80
2017-10-18T12:50:55.605Z,11.80
2017-10-18T12:52:02.333Z,14.40
2017-10-18T12:53:09.562Z,14.70
2017-10-18T12:54:15.809Z,14.50
2017-10-18T12:55:22.536Z,11.90
2017-10-18T12:56:29.321Z,12.60
2017-10-18T12:57:36.113Z,12.90
2017-10-18T12:58:42.885Z,16.50
2017-10-18T12:59:49.687Z,13.10
2017-10-18T13:00:56.452Z,11.80
2017-10-18T13:02:03.259Z,12.80
2017-10-18T13:03:10.065Z,13.80
2017-10-18T13:04:16.841Z,13.40
2017-10-18T13:05:23.577Z,11.20
2017-10-18T13:06:30.419Z,11.30
2017-10-18T13:07:37.142Z,14.00
2017-10-18T13:08:43.901Z,11.50
2017-10-18T13:09:50.678Z,12.90
2017-10-18T13:10:57.437Z,11.60
2017-10-18T13:12:04.314Z,12.30
2017-10-18T13:13:11.114Z,15.20
2017-10-18T13:14:17.901Z,17.10
2017-10-18T13:15:25.568Z,20.30
2017-10-18T13:16:31.334Z,13.90
2017-10-18T13:17:38.182Z,11.60
2017-10-18T13:18:44.958Z,12.00
2017-10-18T13:19:51.778Z,13.40
2017-10-18T13:20:58.558Z,12.30
2017-10-18T13:22:05.302Z,25.30
2017-10-18T13:23:12.038Z,15.50
2017-10-18T13:24:18.817Z,14.00
2017-10-18T13:25:25.558Z,12.50
2017-10-18T13:26:32.347Z,12.20
2017-10-18T13:27:39.105Z,14.90
2017-10-18T13:28:45.926Z,20.00
2017-10-18T13:29:52.678Z,11.00
2017-10-18T13:30:59.417Z,13.30
2017-10-18T13:32:06.158Z,12.40
2017-10-18T13:33:12.921Z,12.60
2017-10-18T13:34:19.689Z,15.80
2017-10-18T13:35:26.860Z,14.10
2017-10-18T13:36:33.089Z,13.50
2017-10-18T13:37:39.815Z,12.60
2017-10-18T13:38:46.578Z,13.10
2017-10-18T13:39:53.587Z,13.50
2017-10-18T13:41:00.325Z,12.70
2017-10-18T13:42:07.059Z,15.80
2017-10-18T13:43:13.825Z,13.10
2017-10-18T13:44:20.709Z,12.20
2017-10-18T13:45:27.480Z,12.70
2017-10-18T13:46:34.278Z,16.10
2017-10-18T13:47:41.074Z,11.50
2017-10-18T13:48:47.921Z,11.50
2017-10-18T13:49:54.652Z,12.70
2017-10-18T13:51:01.461Z,12.90
2017-10-18T13:52:08.229Z,13.70
2017-10-18T13:53:14.957Z,12.40
2017-10-18T13:54:21.716Z,11.60
2017-10-18T13:55:28.453Z,13.50
2017-10-18T13:56:35.194Z,11.20
2017-10-18T13:57:41.944Z,14.20
2017-10-18T13:58:48.697Z,12.00
2017-10-18T13:59:55.457Z,11.00
2017-10-18T14:01:02.198Z,16.10
2017-10-18T14:02:08.961Z,14.10
2017-10-18T14:03:15.709Z,10.80
2017-10-18T14:04:22.494Z,15.70
2017-10-18T14:05:29.438Z,12.60
2017-10-18T14:06:36.240Z,14.30
2017-10-18T14:07:43.049Z,12.20
2017-10-18T14:08:49.830Z,16.10
2017-10-18T14:09:56.645Z,13.60
2017-10-18T14:11:03.397Z,11.30
2017-10-18T14:12:10.207Z,13.40
2017-10-18T14:13:16.999Z,11.20
2017-10-18T14:14:23.754Z,12.60
2017-10-18T14:15:30.505Z,13.00
2017-10-18T14:16:37.259Z,11.30
2017-10-18T14:17:44.825Z,14.20
2017-10-18T14:18:51.167Z,12.00
2017-10-18T14:19:57.915Z,10.90
2017-10-18T14:21:04.658Z,12.80
2017-10-18T14:22:11.411Z,10.80
2017-10-18T14:23:18.158Z,11.50
2017-10-18T14:24:24.926Z,9.60